createdAt,value
2018-05-14T00:02:11.865Z,16.28
2018-05-14T00:04:39.436Z,16.31
2018-05-14T00:07:07.056Z,16.34
2018-05-14T00:09:34.645Z,16.38
2018-05-14T00:12:02.233Z,16.43
2018-05-14T00:14:29.938Z,16.47
2018-05-14T00:16:57.507Z,16.52
2018-05-14T00:19:25.106Z,16.54
2018-05-14T00:21:52.789Z,16.57
2018-05-14T00:24:20.360Z,16.59
2018-05-14T00:26:47.953Z,16.59
2018-05-14T00:29:15.668Z,16.59
2018-05-14T00:31:44.256Z,16.62
2018-05-14T00:34:11.920Z,16.65
2018-05-14T00:36:39.686Z,16.67
2018-05-14T00:39:07.338Z,16.70
2018-05-14T00:41:34.919Z,16.70
2018-05-14T00:44:02.532Z,16.71
2018-05-14T00:46:30.164Z,16.72
2018-05-14T00:48:57.756Z,16.74
2018-05-14T00:51:25.368Z,16.75
2018-05-14T00:53:52.935Z,16.75
2018-05-14T00:56:20.585Z,16.74
2018-05-14T00:58:48.288Z,16.72
2018-05-14T01:01:16.017Z,16.72
2018-05-14T01:03:43.628Z,16.71
2018-05-14T01:06:11.353Z,16.72
2018-05-14T01:08:39.014Z,16.73
2018-05-14T01:11:06.619Z,16.72
2018-05-14T01:13:34.428Z,16.74
2018-05-14T01:16:01.991Z,16.72
2018-05-14T01:18:29.559Z,16.70
2018-05-14T01:20:58.888Z,16.67
2018-05-14T01:23:26.517Z,16.66
2018-05-14T01:25:54.075Z,16.62
2018-05-14T01:28:21.716Z,16.61
2018-05-14T01:30:49.349Z,16.64
2018-05-14T01:33:16.957Z,16.67
2018-05-14T01:35:44.589Z,16.67
2018-05-14T01:38:12.170Z,16.68
2018-05-14T01:40:39.756Z,16.69
2018-05-14T01:43:07.380Z,16.71
2018-05-14T01:45:34.971Z,16.72
2018-05-14T01:48:02.576Z,16.72
2018-05-14T01:50:30.440Z,16.69
2018-05-14T01:52:58.020Z,16.65
2018-05-14T01:55:25.600Z,16.61
2018-05-14T01:57:53.293Z,16.59
2018-05-14T02:00:20.865Z,16.60
2018-05-14T02:02:48.493Z,16.58
2018-05-14T02:05:16.201Z,16.57
2018-05-14T02:07:43.830Z,16.56
2018-05-14T02:10:11.408Z,16.58
2018-05-14T02:12:39.181Z,16.56
2018-05-14T02:15:06.779Z,16.58
2018-05-14T02:17:34.348Z,16.58
2018-05-14T02:20:01.996Z,16.58
2018-05-14T02:22:29.556Z,16.53
2018-05-14T02:24:57.147Z,16.49
2018-05-14T02:27:24.781Z,16.48
2018-05-14T02:29:52.431Z,16.50
2018-05-14T02:32:20.060Z,16.46
2018-05-14T02:34:47.689Z,16.45
2018-05-14T02:37:15.268Z,16.45
2018-05-14T02:39:42.859Z,16.46
2018-05-14T02:42:10.483Z,16.46
2018-05-14T02:44:38.079Z,16.50
2018-05-14T02:47:06.059Z,16.46
2018-05-14T02:49:33.694Z,16.45
2018-05-14T02:52:01.326Z,16.45
2018-05-14T02:54:28.928Z,16.42
2018-05-14T02:56:56.652Z,16.37
2018-05-14T02:59:24.218Z,16.37
2018-05-14T03:01:51.853Z,16.37
2018-05-14T03:04:19.592Z,16.35
2018-05-14T03:06:47.176Z,16.37
2018-05-14T03:09:14.742Z,16.37
2018-05-14T03:11:42.444Z,16.35
2018-05-14T03:14:10.074Z,16.31
2018-05-14T03:16:37.680Z,16.29
2018-05-14T03:19:05.424Z,16.25
2018-05-14T03:21:33.048Z,16.24
2018-05-14T03:24:00.688Z,16.21
2018-05-14T03:26:29.300Z,16.22
2018-05-14T03:28:56.876Z,16.25
2018-05-14T03:31:24.456Z,16.27
2018-05-14T03:33:52.191Z,16.31
2018-05-14T03:36:19.767Z,16.31
2018-05-14T03:38:47.335Z,16.34
2018-05-14T03:41:14.969Z,16.34
2018-05-14T03:43:42.863Z,16.37
2018-05-14T03:46:10.428Z,16.43
2018-05-14T03:48:38.055Z,16.44
2018-05-14T03:51:05.640Z,16.43
2018-05-14T03:53:33.236Z,16.38
2018-05-14T03:56:00.916Z,16.40
2018-05-14T03:58:40.148Z,16.45
2018-05-14T04:01:14.529Z,16.46
2018-05-14T04:03:53.948Z,16.49
2018-05-14T04:06:28.516Z,16.50
2018-05-14T04:08:56.089Z,16.49
2018-05-14T04:11:23.688Z,16.50
2018-05-14T04:13:51.363Z,16.53
2018-05-14T04:16:18.998Z,16.58
2018-05-14T04:18:46.568Z,16.67
2018-05-14T04:21:14.244Z,16.74
2018-05-14T04:23:42.423Z,16.84
2018-05-14T04:26:10.009Z,16.92
2018-05-14T04:28:38.480Z,17.02
2018-05-14T04:31:06.082Z,17.20
2018-05-14T04:33:33.661Z,17.33
2018-05-14T04:36:01.392Z,17.54
2018-05-14T04:38:28.955Z,17.74
2018-05-14T04:40:56.747Z,17.85
2018-05-14T04:43:24.380Z,17.94
2018-05-14T04:45:52.023Z,18.02
2018-05-14T04:48:19.613Z,18.04
2018-05-14T04:50:47.331Z,18.10
2018-05-14T04:53:14.913Z,18.10
2018-05-14T04:55:42.596Z,18.04
2018-05-14T04:58:10.220Z,18.02
2018-05-14T05:00:37.869Z,17.97
2018-05-14T05:03:05.442Z,18.00
2018-05-14T05:05:33.084Z,18.04
2018-05-14T05:08:00.668Z,18.09
2018-05-14T05:10:28.315Z,18.18
2018-05-14T05:12:55.923Z,18.28
2018-05-14T05:15:24.228Z,18.39
2018-05-14T05:17:53.340Z,18.54
2018-05-14T05:20:21.038Z,18.84
2018-05-14T05:22:48.664Z,19.11
2018-05-14T05:25:16.260Z,19.11
2018-05-14T05:27:43.944Z,19.22
2018-05-14T05:30:11.593Z,18.85
2018-05-14T05:32:39.258Z,18.86
2018-05-14T05:35:06.984Z,18.90
2018-05-14T05:37:34.584Z,19.02
2018-05-14T05:40:02.167Z,19.04
2018-05-14T05:42:29.792Z,19.03
2018-05-14T05:44:57.387Z,19.02
2018-05-14T05:47:24.976Z,19.09
2018-05-14T05:49:52.740Z,19.15
2018-05-14T05:52:20.329Z,19.18
2018-05-14T05:54:47.918Z,19.10
2018-05-14T05:57:16.457Z,19.05
2018-05-14T05:59:44.039Z,19.02
2018-05-14T06:02:11.624Z,19.11
2018-05-14T06:04:39.441Z,19.22
2018-05-14T06:07:07.022Z,19.19
2018-05-14T06:09:34.635Z,19.22
2018-05-14T06:12:02.334Z,19.16
2018-05-14T06:14:29.920Z,19.15
2018-05-14T06:16:57.504Z,19.07
2018-05-14T06:19:25.248Z,19.12
2018-05-14T06:21:52.829Z,19.16
2018-05-14T06:24:20.444Z,19.14
2018-05-14T06:26:48.896Z,19.21
2018-05-14T06:29:16.471Z,19.26
2018-05-14T06:31:44.091Z,19.26
2018-05-14T06:34:11.735Z,19.13
2018-05-14T06:36:39.348Z,19.12
2018-05-14T06:39:07.012Z,18.99
2018-05-14T06:41:34.639Z,18.91
2018-05-14T06:44:02.208Z,18.82
2018-05-14T06:46:29.852Z,18.94
2018-05-14T06:48:57.603Z,18.91
2018-05-14T06:51:25.690Z,18.95
2018-05-14T06:53:53.280Z,18.99
2018-05-14T06:56:21.010Z,19.09
2018-05-14T06:58:48.597Z,19.15
2018-05-14T07:01:16.221Z,19.12
2018-05-14T07:03:43.946Z,19.07
2018-05-14T07:06:11.653Z,19.14
2018-05-14T07:08:39.287Z,19.16
2018-05-14T07:11:07.023Z,19.20
2018-05-14T07:13:34.601Z,19.25
2018-05-14T07:16:02.256Z,19.32
2018-05-14T07:18:29.885Z,19.45
2018-05-14T07:20:57.469Z,19.50
2018-05-14T07:23:25.140Z,19.67
2018-05-14T07:25:52.855Z,19.80
2018-05-14T07:28:20.436Z,19.95
2018-05-14T07:30:48.078Z,19.94
2018-05-14T07:33:15.796Z,20.05
2018-05-14T07:35:43.424Z,20.13
2018-05-14T07:38:11.020Z,20.13
2018-05-14T07:40:38.676Z,20.03
2018-05-14T07:43:06.364Z,20.01
2018-05-14T07:45:33.950Z,20.13
2018-05-14T07:48:01.632Z,20.18
2018-05-14T07:50:29.236Z,20.23
2018-05-14T07:52:56.820Z,20.28
2018-05-14T07:55:24.462Z,20.26
2018-05-14T07:57:52.112Z,20.28
2018-05-14T08:00:19.745Z,20.35
2018-05-14T08:02:47.395Z,20.44
2018-05-14T08:05:15.088Z,20.39
2018-05-14T08:07:42.755Z,20.43
2018-05-14T08:10:10.392Z,20.47
2018-05-14T08:12:38.033Z,20.51
2018-05-14T08:15:05.615Z,20.56
2018-05-14T08:17:33.264Z,20.36
2018-05-14T08:20:00.859Z,20.52
2018-05-14T08:22:28.445Z,20.63
2018-05-14T08:24:56.133Z,20.59
2018-05-14T08:27:23.724Z,20.61
2018-05-14T08:29:51.338Z,20.75
2018-05-14T08:32:18.957Z,20.77
2018-05-14T08:34:46.552Z,20.84
2018-05-14T08:37:14.303Z,20.87
2018-05-14T08:39:41.919Z,20.79
2018-05-14T08:42:09.510Z,20.74
2018-05-14T08:44:37.099Z,20.79
2018-05-14T08:47:04.727Z,20.76
2018-05-14T08:49:32.323Z,20.90
2018-05-14T08:51:59.899Z,21.03
2018-05-14T08:54:27.764Z,21.14
2018-05-14T08:56:55.260Z,21.30
2018-05-14T08:59:22.843Z,21.51
2018-05-14T09:01:50.608Z,21.75
2018-05-14T09:04:18.209Z,22.44
2018-05-14T09:06:45.813Z,23.08
2018-05-14T09:09:13.552Z,23.42
2018-05-14T09:11:41.147Z,23.58
2018-05-14T09:14:08.833Z,23.67
2018-05-14T09:16:36.549Z,23.78
2018-05-14T09:19:04.180Z,23.92
2018-05-14T09:21:31.824Z,24.01
2018-05-14T09:23:59.612Z,24.29
2018-05-14T09:26:27.244Z,24.64
2018-05-14T09:28:54.844Z,24.62
2018-05-14T09:31:22.697Z,24.55
2018-05-14T09:33:50.263Z,24.72
2018-05-14T09:36:17.901Z,24.68
2018-05-14T09:38:45.540Z,24.69
2018-05-14T09:41:14.092Z,24.66
2018-05-14T09:43:41.674Z,24.75
2018-05-14T09:46:09.972Z,24.64
2018-05-14T09:48:37.556Z,24.83
2018-05-14T09:51:05.202Z,25.00
2018-05-14T09:53:32.920Z,25.22
2018-05-14T09:56:00.561Z,25.30
2018-05-14T09:58:28.205Z,25.53
2018-05-14T10:00:56.165Z,25.55
2018-05-14T10:03:24.390Z,25.60
2018-05-14T10:05:51.992Z,25.61
2018-05-14T10:08:19.709Z,25.89
2018-05-14T10:10:47.295Z,26.12
2018-05-14T10:13:14.921Z,26.26
2018-05-14T10:15:42.579Z,26.39
2018-05-14T10:18:10.178Z,26.55
2018-05-14T10:20:37.761Z,26.81
2018-05-14T10:23:05.487Z,26.90
2018-05-14T10:25:33.145Z,26.74
2018-05-14T10:28:00.724Z,26.71
2018-05-14T10:30:28.482Z,26.73
2018-05-14T10:32:56.041Z,26.61
2018-05-14T10:35:24.412Z,26.19
2018-05-14T10:37:52.053Z,26.28
2018-05-14T10:40:19.690Z,26.57
2018-05-14T10:42:47.346Z,26.93
2018-05-14T10:45:15.065Z,27.46
2018-05-14T10:47:42.686Z,27.54
2018-05-14T10:50:10.289Z,27.48
2018-05-14T10:52:37.984Z,27.24
2018-05-14T10:55:06.455Z,27.27
2018-05-14T10:57:34.100Z,27.20
2018-05-14T11:00:01.880Z,27.13
2018-05-14T11:02:29.456Z,26.30
2018-05-14T11:04:57.110Z,26.23
2018-05-14T11:07:24.796Z,26.24
2018-05-14T11:09:52.376Z,26.41
2018-05-14T11:12:20.015Z,26.68
2018-05-14T11:14:47.644Z,26.86
2018-05-14T11:17:15.216Z,26.81
2018-05-14T11:19:42.826Z,26.94
2018-05-14T11:22:10.509Z,27.01
2018-05-14T11:24:38.114Z,27.18
2018-05-14T11:27:05.705Z,27.28
2018-05-14T11:29:33.333Z,26.99
2018-05-14T11:32:00.936Z,26.79
2018-05-14T11:34:28.581Z,27.04
2018-05-14T11:36:56.224Z,26.96
2018-05-14T11:39:23.868Z,26.92
2018-05-14T11:41:51.448Z,26.92
2018-05-14T11:44:19.102Z,26.71
2018-05-14T11:46:46.770Z,26.83
2018-05-14T11:49:14.384Z,26.59
2018-05-14T11:51:42.036Z,26.69
2018-05-14T11:54:10.214Z,26.62
2018-05-14T11:56:38.690Z,26.03
2018-05-14T11:59:06.349Z,25.91
2018-05-14T12:01:33.929Z,25.85
2018-05-14T12:04:01.506Z,26.01
2018-05-14T12:06:29.255Z,26.27
2018-05-14T12:08:56.845Z,26.39
2018-05-14T12:11:24.440Z,26.35
2018-05-14T12:13:52.149Z,26.16
2018-05-14T12:16:19.827Z,26.24
2018-05-14T12:18:47.496Z,26.37
2018-05-14T12:21:15.145Z,26.28
2018-05-14T12:23:42.717Z,26.34
2018-05-14T12:26:10.369Z,26.73
2018-05-14T12:28:38.098Z,27.07
2018-05-14T12:31:05.699Z,27.02
2018-05-14T12:33:33.272Z,26.93
2018-05-14T12:36:00.965Z,26.75
2018-05-14T12:38:28.535Z,26.22
2018-05-14T12:40:56.188Z,25.88
2018-05-14T12:43:23.833Z,25.79
2018-05-14T12:45:51.411Z,25.81
2018-05-14T12:48:19.047Z,25.99
2018-05-14T12:50:46.992Z,26.16
2018-05-14T12:53:14.574Z,26.31
2018-05-14T12:55:42.151Z,26.26
2018-05-14T12:58:10.461Z,25.77
2018-05-14T13:00:38.077Z,25.69
2018-05-14T13:03:05.725Z,25.81
2018-05-14T13:05:33.422Z,25.92
2018-05-14T13:08:01.036Z,26.11
2018-05-14T13:10:28.640Z,25.90
2018-05-14T13:12:56.346Z,25.72
2018-05-14T13:15:23.923Z,25.71
2018-05-14T13:17:51.593Z,25.72
2018-05-14T13:20:19.293Z,25.75
2018-05-14T13:22:46.875Z,25.63
2018-05-14T13:25:14.549Z,25.58
2018-05-14T13:27:42.242Z,25.58
2018-05-14T13:30:09.856Z,25.54
2018-05-14T13:32:37.497Z,25.56
2018-05-14T13:35:05.321Z,25.66
2018-05-14T13:37:32.993Z,25.74
2018-05-14T13:40:00.524Z,25.74
2018-05-14T13:42:28.155Z,25.63
2018-05-14T13:44:55.765Z,25.65
2018-05-14T13:47:23.352Z,25.48
2018-05-14T13:49:50.963Z,25.34
2018-05-14T13:52:18.605Z,25.26
2018-05-14T13:54:46.196Z,24.99
2018-05-14T13:57:13.915Z,25.06
2018-05-14T13:59:41.517Z,25.16
2018-05-14T14:02:09.100Z,25.08
2018-05-14T14:04:36.804Z,24.90
2018-05-14T14:07:04.408Z,25.00
2018-05-14T14:09:31.995Z,25.11
2018-05-14T14:11:59.620Z,25.14
2018-05-14T14:14:27.264Z,25.07
2018-05-14T14:16:54.893Z,25.05
2018-05-14T14:19:22.563Z,25.11
2018-05-14T14:21:50.144Z,25.13
2018-05-14T14:24:17.831Z,25.16
2018-05-14T14:26:45.509Z,25.20
2018-05-14T14:29:13.089Z,25.23
2018-05-14T14:31:40.678Z,25.19
2018-05-14T14:34:08.431Z,25.19
2018-05-14T14:36:36.040Z,25.19
2018-05-14T14:39:03.781Z,25.15
2018-05-14T14:41:31.501Z,25.13
2018-05-14T14:43:59.071Z,25.10
2018-05-14T14:46:26.815Z,25.12
2018-05-14T14:48:54.373Z,25.08
2018-05-14T14:51:22.820Z,25.08
2018-05-14T14:53:50.466Z,25.09
2018-05-14T14:56:18.188Z,25.10
2018-05-14T14:58:45.775Z,25.09
2018-05-14T15:01:13.429Z,25.10
2018-05-14T15:03:41.126Z,25.17
2018-05-14T15:06:08.723Z,25.23
2018-05-14T15:08:36.300Z,25.27
2018-05-14T15:11:04.108Z,25.32
2018-05-14T15:13:31.692Z,25.35
2018-05-14T15:15:59.295Z,25.37
2018-05-14T15:18:27.374Z,25.44
2018-05-14T15:20:54.965Z,25.44
2018-05-14T15:23:22.615Z,25.44
2018-05-14T15:25:50.317Z,25.43
2018-05-14T15:28:17.912Z,25.33
2018-05-14T15:30:45.579Z,25.02
2018-05-14T15:33:13.203Z,24.85
2018-05-14T15:35:40.790Z,24.49
2018-05-14T15:38:08.359Z,24.04
2018-05-14T15:40:36.076Z,23.46
2018-05-14T15:43:03.724Z,23.08
2018-05-14T15:45:31.374Z,22.81
2018-05-14T15:47:59.149Z,22.70
2018-05-14T15:50:26.740Z,22.54
2018-05-14T15:52:54.401Z,22.45
2018-05-14T15:55:22.025Z,22.34
2018-05-14T15:57:49.608Z,22.25
2018-05-14T16:00:17.191Z,22.25
2018-05-14T16:02:44.976Z,22.12
2018-05-14T16:05:12.561Z,22.10
2018-05-14T16:07:40.156Z,22.08
2018-05-14T16:10:07.884Z,21.96
2018-05-14T16:12:35.475Z,21.90
2018-05-14T16:15:03.089Z,21.89
2018-05-14T16:17:30.880Z,21.88
2018-05-14T16:19:58.470Z,21.84
2018-05-14T16:22:26.124Z,21.79
2018-05-14T16:24:53.770Z,21.76
2018-05-14T16:27:21.396Z,21.69
2018-05-14T16:29:49.027Z,21.60
2018-05-14T16:32:16.715Z,21.50
2018-05-14T16:34:44.312Z,21.47
2018-05-14T16:37:11.972Z,21.46
2018-05-14T16:39:40.025Z,21.45
2018-05-14T16:42:07.655Z,21.45
2018-05-14T16:44:35.252Z,21.45
2018-05-14T16:47:02.949Z,21.43
2018-05-14T16:49:30.632Z,21.39
2018-05-14T16:51:58.240Z,21.38
2018-05-14T16:54:25.879Z,21.37
2018-05-14T16:56:53.478Z,21.32
2018-05-14T16:59:21.060Z,21.31
2018-05-14T17:01:48.800Z,21.30
2018-05-14T17:04:16.463Z,21.27
2018-05-14T17:06:44.074Z,21.24
2018-05-14T17:09:11.790Z,21.18
2018-05-14T17:11:39.373Z,21.11
2018-05-14T17:14:06.979Z,21.05
2018-05-14T17:16:34.641Z,20.98
2018-05-14T17:19:02.221Z,20.91
2018-05-14T17:21:37.587Z,20.74
2018-05-14T17:24:05.559Z,20.57
2018-05-14T17:26:33.293Z,20.44
2018-05-14T17:29:00.837Z,20.41
2018-05-14T17:31:28.468Z,20.31
2018-05-14T17:33:56.046Z,20.22
2018-05-14T17:36:23.769Z,20.19
2018-05-14T17:38:51.464Z,20.10
2018-05-14T17:41:19.074Z,20.03
2018-05-14T17:43:46.647Z,19.98
2018-05-14T17:46:14.353Z,19.95
2018-05-14T17:48:42.000Z,19.91
2018-05-14T17:51:09.643Z,19.89
2018-05-14T17:53:37.297Z,19.85
2018-05-14T17:56:05.522Z,19.83
2018-05-14T17:58:33.112Z,19.78
2018-05-14T18:01:00.806Z,19.74
2018-05-14T18:03:28.376Z,19.73
2018-05-14T18:05:56.595Z,19.79
2018-05-14T18:08:24.335Z,19.84
2018-05-14T18:10:52.009Z,19.88
2018-05-14T18:13:19.555Z,19.96
2018-05-14T18:15:47.619Z,19.98
2018-05-14T18:18:15.200Z,20.06
2018-05-14T18:20:43.700Z,20.13
2018-05-14T18:23:27.040Z,20.24
2018-05-14T18:26:12.538Z,20.31
2018-05-14T18:28:40.943Z,20.39
2018-05-14T18:31:14.283Z,20.46
2018-05-14T18:33:42.124Z,20.49
2018-05-14T18:36:10.477Z,20.55
2018-05-14T18:38:38.121Z,20.59
2018-05-14T18:41:05.901Z,20.63
2018-05-14T18:43:33.549Z,20.68
2018-05-14T18:46:01.188Z,20.74
2018-05-14T18:48:29.713Z,20.79
2018-05-14T18:50:57.283Z,20.85
2018-05-14T18:53:24.870Z,20.88
2018-05-14T18:55:52.504Z,20.92
2018-05-14T18:58:20.102Z,20.94
2018-05-14T19:00:47.708Z,20.97
2018-05-14T19:03:15.380Z,20.97
2018-05-14T19:05:42.980Z,20.94
2018-05-14T19:08:10.591Z,20.94
2018-05-14T19:10:43.739Z,20.94
2018-05-14T19:13:11.386Z,20.93
2018-05-14T19:15:44.797Z,20.94
2018-05-14T19:18:12.423Z,20.93
2018-05-14T19:20:40.020Z,20.93
2018-05-14T19:23:13.351Z,20.92
2018-05-14T19:25:41.044Z,20.89
2018-05-14T19:28:14.359Z,20.86
2018-05-14T19:30:42.014Z,20.82
2018-05-14T19:33:09.637Z,20.80
2018-05-14T19:35:43.058Z,20.79
2018-05-14T19:38:10.665Z,20.76
2018-05-14T19:40:43.996Z,20.76
2018-05-14T19:43:11.597Z,20.76
2018-05-14T19:45:39.175Z,20.73
2018-05-14T19:48:06.901Z,20.71
2018-05-14T19:50:34.552Z,20.69
2018-05-14T19:53:02.208Z,20.70
2018-05-14T19:55:29.859Z,20.69
2018-05-14T19:57:57.487Z,20.66
2018-05-14T20:00:25.144Z,20.65
2018-05-14T20:02:52.938Z,20.61
2018-05-14T20:05:20.541Z,20.57
2018-05-14T20:07:48.129Z,20.53
2018-05-14T20:10:15.748Z,20.35
2018-05-14T20:12:43.331Z,20.28
2018-05-14T20:15:10.937Z,20.23
2018-05-14T20:17:39.397Z,20.19
2018-05-14T20:20:07.167Z,20.15
2018-05-14T20:22:34.769Z,20.07
2018-05-14T20:25:02.413Z,20.01
2018-05-14T20:27:30.025Z,19.90
2018-05-14T20:29:57.623Z,19.77
2018-05-14T20:32:25.382Z,19.60
2018-05-14T20:34:53.016Z,19.44
2018-05-14T20:37:20.702Z,19.29
2018-05-14T20:39:48.441Z,19.22
2018-05-14T20:42:16.028Z,19.14
2018-05-14T20:44:44.458Z,19.11
2018-05-14T20:47:12.200Z,19.10
2018-05-14T20:49:39.800Z,19.09
2018-05-14T20:52:07.452Z,19.09
2018-05-14T20:54:35.116Z,19.08
2018-05-14T20:57:02.693Z,19.07
2018-05-14T20:59:30.292Z,19.06
2018-05-14T21:01:58.008Z,19.05
2018-05-14T21:04:25.688Z,19.06
2018-05-14T21:06:53.291Z,19.05
2018-05-14T21:09:20.919Z,19.06
2018-05-14T21:11:48.502Z,19.05
2018-05-14T21:14:16.143Z,19.04
2018-05-14T21:16:46.564Z,19.02
2018-05-14T21:19:14.154Z,18.98
2018-05-14T21:21:41.788Z,18.95
2018-05-14T21:24:09.925Z,18.93
2018-05-14T21:26:37.551Z,18.92
2018-05-14T21:29:05.133Z,18.92
2018-05-14T21:31:32.788Z,18.93
2018-05-14T21:34:00.371Z,18.93
2018-05-14T21:36:27.960Z,18.93
2018-05-14T21:38:55.695Z,18.92
2018-05-14T21:41:23.304Z,18.92
2018-05-14T21:43:50.891Z,18.93
2018-05-14T21:46:18.539Z,18.88
2018-05-14T21:48:46.201Z,18.86
2018-05-14T21:51:13.860Z,18.86
2018-05-14T21:53:41.649Z,18.84
2018-05-14T21:56:09.227Z,18.82
2018-05-14T21:58:37.784Z,18.81
2018-05-14T22:01:05.488Z,18.78
2018-05-14T22:03:33.143Z,18.78
2018-05-14T22:06:00.798Z,18.77
2018-05-14T22:08:28.581Z,18.76
2018-05-14T22:10:56.165Z,18.73
2018-05-14T22:13:23.809Z,18.71
2018-05-14T22:15:51.463Z,18.73
2018-05-14T22:18:19.130Z,18.69
2018-05-14T22:20:46.724Z,18.70
2018-05-14T22:23:14.563Z,18.72
2018-05-14T22:25:42.151Z,18.71
2018-05-14T22:28:09.739Z,18.73
2018-05-14T22:30:37.363Z,18.70
2018-05-14T22:33:05.020Z,18.70
2018-05-14T22:35:32.667Z,18.73
2018-05-14T22:38:00.356Z,18.75
2018-05-14T22:40:28.001Z,18.77
2018-05-14T22:42:55.588Z,18.72
2018-05-14T22:45:23.277Z,18.70
2018-05-14T22:47:50.933Z,18.68
2018-05-14T22:50:18.584Z,18.65
2018-05-14T22:52:46.228Z,18.62
2018-05-14T22:55:13.895Z,18.61
2018-05-14T22:57:41.480Z,18.55
2018-05-14T23:00:09.328Z,18.54
2018-05-14T23:02:36.931Z,18.50
2018-05-14T23:05:05.094Z,18.46
2018-05-14T23:07:32.727Z,18.43
2018-05-14T23:10:00.315Z,18.40
2018-05-14T23:12:28.888Z,18.41
2018-05-14T23:14:56.644Z,18.39
2018-05-14T23:17:24.242Z,18.33
2018-05-14T23:19:51.890Z,18.30
2018-05-14T23:22:19.588Z,18.28
2018-05-14T23:24:47.380Z,18.25
2018-05-14T23:27:15.036Z,18.24
2018-05-14T23:29:42.779Z,18.23
2018-05-14T23:32:10.439Z,18.21
2018-05-14T23:34:38.034Z,18.21
2018-05-14T23:37:05.736Z,18.18
2018-05-14T23:39:33.323Z,18.18
2018-05-14T23:42:01.161Z,18.17
2018-05-14T23:44:28.896Z,18.12
2018-05-14T23:46:56.499Z,18.08
2018-05-14T23:49:24.085Z,18.04
2018-05-14T23:51:51.728Z,18.00
2018-05-14T23:54:19.386Z,17.94
2018-05-14T23:56:46.967Z,17.95
2018-05-14T23:59:14.618Z,17.94
